Portada
METAR-TAF:

METAR-TAF

Aeroports :

Podgorica, Montenegro

latitud: 42-26N, longitud: 019-17E, altitud: 53 m

Observació

L'informe es va fer fa 23 minuts, a les 08:00 UTC
Vent 2 kt amb direcció variable
Temperatura 17°C
Humitat 36%
Pressió 1012 hPa
Visibilitat 10 km o més
sense núvols per sota de 1500 mi sense presència de cumulonimbus.

METAR: LYPG 300800Z VRB02KT CAVOK 17/02 Q1012 NOSIG

Hora: 10:23 (08:23 UTC)

Pronòstic

L'informe es va fer fa 3 hores i 23 minuts, a les 05:00 UTC
Pronòstic vàlid del 30 a les 06 UTC al 31 a les 06 UTC
Vent 6 kt del Sud/Sud-Est
Visibilitat 10 km o més
Escasses núvols a una alçada de 5000 ft
Cel ennuvolat a una alçada de 8000 ft
Evolucionant progressivament
l' 30 a les 18 UTC al 30 a les 20 UTC
Vent 15 kt del Nord/Nord-Est

TAF: LYPG 300500Z 3006/3106 15006KT 9999 FEW050 BKN080 TX16/3013Z TN08/3006Z BECMG 3018/3020 02015KT

Observacions i pronòstics meteorològics de més de 4000 aeroports (METAR i TAF).

Les estacions disponibles són els punts grocs i vermells al mapa.

Posi el ratolí al punt desitjat per veure el nom de l'estació.

Feu clic per veure les observacions i els pronòstics meteorològics.

Per canviar el mapa: feu clic els botons verds amb una creu de color negre per apropar; al botó verd amb un guió per allunyar la imatge; o en les fletxes verdes per a mapes adjacents.


METAR-TAF: